Time;durP1;ratioP1;P1;durP2;ratioP2;P2;SDS_P1;SDS_P2;PMS_P1;PMS_P2;Temp;Humidity;BMP_temperature;BMP_pressure;BME280_temperature;BME280_humidity;BME280_pressure;Samples;Min_cycle;Max_cycle;Signal;HPM_P1;HPM_P2
2023/03/22 00:01:47;;;;;;;;;;;;;;;;;;2211898;67;1229;-68
2023/03/22 00:04:17;;;;;;;;;;;;;;;;;;2207401;67;1258;-68
2023/03/22 00:06:48;;;;;;;;;;;;;;;;;;2213277;67;1303;-69
2023/03/22 00:09:18;;;;;;;;;;;;;;;;;;2210011;59;1483;-70
2023/03/22 00:11:49;;;;;;;;;;;;;;;;;;2210119;67;1930;-69
2023/03/22 00:14:20;;;;;;;;;;;;;;;;;;2213616;67;1137;-68
2023/03/22 00:16:50;;;;;;;;;;;;;;;;;;2213820;67;1212;-69
2023/03/22 00:19:27;;;;;;;;;;;;;;;;;;2210038;67;1276;-68
2023/03/22 00:21:59;;;;;;;;;;;;;;;;;;2218041;67;1128;-68
2023/03/22 00:24:33;;;;;;;;;;;;;;;;;;2219376;59;1366;-68
2023/03/22 00:27:09;;;;;;;;;;;;;;;;;;2215702;67;1288;-69
2023/03/22 00:29:43;;;;;;;;;;;;;;;;;;2216701;67;1346;-67
2023/03/22 00:32:27;;;;;;;;;;;;;;;;;;2213600;67;1992;-67
2023/03/22 00:35:04;;;;;;;;;;;;;;;;;;2213851;59;1441;-69
2023/03/22 00:37:37;;;;;;;;;;;;;;;;;;2210382;59;1661;-68
2023/03/22 00:40:09;;;;;;;;;;;;;;;;;;2209843;67;1256;-69
2023/03/22 00:42:40;;;;;;;;;;;;;;;;;;2210987;59;1340;-68
2023/03/22 00:45:13;;;;;;;;;;;;;;;;;;2210063;59;1144;-68
2023/03/22 00:47:44;;;;;;;;;;;;;;;;;;2209971;59;1336;-69
2023/03/22 00:50:14;;;;;;;;;;;;;;;;;;2209504;67;1977;-69
2023/03/22 00:52:55;;;;;;;;;;;;;;;;;;2209580;59;1143;-69
2023/03/22 00:55:25;;;;;;;;;;;;;;;;;;2210038;67;1070;-68
2023/03/22 00:57:56;;;;;;;;;;;;;;;;;;2210791;67;1239;-69
2023/03/22 01:00:26;;;;;;;;;;;;;;;;;;2215818;67;1211;-70
2023/03/22 01:02:58;;;;;;;;;;;;;;;;;;2220876;67;1311;-69
2023/03/22 01:05:33;;;;;;;;;;;;;;;;;;2218221;59;1163;-68
2023/03/22 01:08:07;;;;;;;;;;;;;;;;;;2210639;67;1255;-69
2023/03/22 01:10:38;;;;;;;;;;;;;;;;;;2208949;67;1961;-69
2023/03/22 01:13:10;;;;;;;;;;;;;;;;;;2209609;67;1177;-70
2023/03/22 01:15:50;;;;;;;;;;;;;;;;;;2211127;67;1231;-68
2023/03/22 01:18:21;;;;;;;;;;;;;;;;;;2211965;67;1274;-67
2023/03/22 01:20:57;;;;;;;;;;;;;;;;;;2223842;67;1145;-67
2023/03/22 01:23:28;;;;;;;;;;;;;;;;;;2222023;67;1129;-69
2023/03/22 01:26:07;;;;;;;;;;;;;;;;;;2222215;67;1260;-67
2023/03/22 01:28:39;;;;;;;;;;;;;;;;;;2219708;67;1225;-68
2023/03/22 01:31:09;;;;;;;;;;;;;;;;;;2210295;59;1929;-69
2023/03/22 01:33:40;;;;;;;;;;;;;;;;;;2209354;67;1300;-69
2023/03/22 01:36:13;;;;;;;;;;;;;;;;;;2214181;67;1362;-68
2023/03/22 01:38:47;;;;;;;;;;;;;;;;;;2209612;67;1296;-69
2023/03/22 01:41:17;;;;;;;;;;;;;;;;;;2208854;67;1298;-69
2023/03/22 01:44:23;;;;;;;;;;;;;;;;;;2209934;67;1307;-69
2023/03/22 01:46:53;;;;;;;;;;;;;;;;;;2194597;59;1365;-69
2023/03/22 01:49:29;;;;;;;;;;;;;;;;;;2215313;67;1244;-69
2023/03/22 01:52:05;;;;;;;;;;;;;;;;;;2213175;67;1933;-67
2023/03/22 01:54:55;;;;;;;;;;;;;;;;;;2209912;67;1351;-69
2023/03/22 01:57:26;;;;;;;;;;;;;;;;;;2208674;67;1181;-69
2023/03/22 01:59:57;;;;;;;;;;;;;;;;;;2210384;67;1274;-69
2023/03/22 02:02:29;;;;;;;;;;;;;;;;;;2210189;67;1109;-69
2023/03/22 02:05:00;;;;;;;;;;;;;;;;;;2210410;67;1129;-69
2023/03/22 02:07:31;;;;;;;;;;;;;;;;;;2208977;67;1161;-69
2023/03/22 02:10:01;;;;;;;;;;;;;;;;;;2211781;67;1202;-69
2023/03/22 02:12:46;;;;;;;;;;;;;;;;;;2210156;67;2000;-69
2023/03/22 02:15:23;;;;;;;;;;;;;;;;;;2211551;67;1066;-68
2023/03/22 02:18:15;;;;;;;;;;;;;;;;;;2208724;67;1223;-68
2023/03/22 02:21:01;;;;;;;;;;;;;;;;;;2211144;59;1292;-69
2023/03/22 02:23:46;;;;;;;;;;;;;;;;;;2209787;59;1215;-69
2023/03/22 02:26:45;;;;;;;;;;;;;;;;;;2211750;67;1186;-69
2023/03/22 02:29:43;;;;;;;;;;;;;;;;;;2209618;67;1167;-69
2023/03/22 02:32:36;;;;;;;;;;;;;;;;;;2207825;59;1945;-69
2023/03/22 02:35:25;;;;;;;;;;;;;;;;;;2212677;67;1210;-69
2023/03/22 02:38:05;;;;;;;;;;;;;;;;;;2210353;67;1214;-69
2023/03/22 02:40:50;;;;;;;;;;;;;;;;;;2209472;67;1209;-68
2023/03/22 02:43:37;;;;;;;;;;;;;;;;;;2208398;67;1330;-69
2023/03/22 02:46:07;;;;;;;;;;;;;;;;;;2210799;59;1277;-70
2023/03/22 02:48:38;;;;;;;;;;;;;;;;;;2209485;67;1216;-68
2023/03/22 02:51:28;;;;;;;;;;;;;;;;;;2211508;67;1900;-69
2023/03/22 02:54:03;;;;;;;;;;;;;;;;;;2209567;67;1198;-69
2023/03/22 02:56:38;;;;;;;;;;;;;;;;;;2210098;67;1288;-69
2023/03/22 02:59:10;;;;;;;;;;;;;;;;;;2209854;67;1207;-69
2023/03/22 03:01:46;;;;;;;;;;;;;;;;;;2209508;67;1139;-68
2023/03/22 03:04:19;;;;;;;;;;;;;;;;;;2210137;59;1223;-69
2023/03/22 03:06:50;;;;;;;;;;;;;;;;;;2210809;67;1210;-69
2023/03/22 03:09:21;;;;;;;;;;;;;;;;;;2209516;67;1270;-68
2023/03/22 03:11:52;;;;;;;;;;;;;;;;;;2209656;67;1920;-68
2023/03/22 03:14:29;;;;;;;;;;;;;;;;;;2210690;67;1055;-69
2023/03/22 03:17:06;;;;;;;;;;;;;;;;;;2211582;67;1129;-69
2023/03/22 03:19:45;;;;;;;;;;;;;;;;;;2210088;67;1249;-68
2023/03/22 03:22:24;;;;;;;;;;;;;;;;;;2211374;67;1129;-69
2023/03/22 03:25:07;;;;;;;;;;;;;;;;;;2214113;67;1184;-68
2023/03/22 03:27:48;;;;;;;;;;;;;;;;;;2215777;67;1254;-68
2023/03/22 03:30:33;;;;;;;;;;;;;;;;;;2209818;67;1920;-69
2023/03/22 03:33:08;;;;;;;;;;;;;;;;;;2211622;67;1156;-69
2023/03/22 03:35:53;;;;;;;;;;;;;;;;;;2210260;67;1314;-68
2023/03/22 03:38:26;;;;;;;;;;;;;;;;;;2210413;67;1276;-68
2023/03/22 03:41:01;;;;;;;;;;;;;;;;;;2210806;67;1133;-69
2023/03/22 03:43:33;;;;;;;;;;;;;;;;;;2209462;67;1201;-69
2023/03/22 03:46:03;;;;;;;;;;;;;;;;;;2215612;59;1244;-68
2023/03/22 03:48:39;;;;;;;;;;;;;;;;;;2212061;67;1268;-68
2023/03/22 03:51:10;;;;;;;;;;;;;;;;;;2214285;67;1902;-69
2023/03/22 03:53:40;;;;;;;;;;;;;;;;;;2219462;59;1723;-71
2023/03/22 03:56:11;;;;;;;;;;;;;;;;;;2213655;67;1133;-68
2023/03/22 03:58:41;;;;;;;;;;;;;;;;;;2210539;67;1214;-69
2023/03/22 04:01:18;;;;;;;;;;;;;;;;;;2211876;59;1267;-68
2023/03/22 04:03:49;;;;;;;;;;;;;;;;;;2209419;59;1299;-69
2023/03/22 04:06:20;;;;;;;;;;;;;;;;;;2209626;67;1299;-69
2023/03/22 04:08:55;;;;;;;;;;;;;;;;;;2211668;67;1344;-68
2023/03/22 04:11:26;;;;;;;;;;;;;;;;;;2216673;67;1959;-68
2023/03/22 04:13:57;;;;;;;;;;;;;;;;;;2223590;67;1261;-68
2023/03/22 04:16:28;;;;;;;;;;;;;;;;;;2223714;67;1253;-69
2023/03/22 04:19:00;;;;;;;;;;;;;;;;;;2223473;59;1175;-69
2023/03/22 04:21:31;;;;;;;;;;;;;;;;;;2212537;67;1204;-69
2023/03/22 04:24:01;;;;;;;;;;;;;;;;;;2210072;67;1185;-68
2023/03/22 04:26:39;;;;;;;;;;;;;;;;;;2210678;67;1247;-68
2023/03/22 04:29:10;;;;;;;;;;;;;;;;;;2210901;67;1326;-68
2023/03/22 04:31:40;;;;;;;;;;;;;;;;;;2210864;67;1935;-68
2023/03/22 04:34:11;;;;;;;;;;;;;;;;;;2211800;67;1258;-69
2023/03/22 04:36:41;;;;;;;;;;;;;;;;;;2216419;67;1251;-69
2023/03/22 04:39:21;;;;;;;;;;;;;;;;;;2220496;67;1280;-67
2023/03/22 04:41:51;;;;;;;;;;;;;;;;;;2218690;67;1120;-69
2023/03/22 04:44:22;;;;;;;;;;;;;;;;;;2212256;67;1254;-69
2023/03/22 04:46:52;;;;;;;;;;;;;;;;;;2208832;59;1093;-68
2023/03/22 04:49:22;;;;;;;;;;;;;;;;;;2211704;67;1255;-69
2023/03/22 04:51:54;;;;;;;;;;;;;;;;;;2210324;67;1989;-68
2023/03/22 04:54:24;;;;;;;;;;;;;;;;;;2209376;59;1167;-68
2023/03/22 04:56:55;;;;;;;;;;;;;;;;;;2209521;67;1081;-69
2023/03/22 04:59:25;;;;;;;;;;;;;;;;;;2209784;67;1318;-69
2023/03/22 05:01:59;;;;;;;;;;;;;;;;;;2211798;67;1476;-69
2023/03/22 05:04:30;;;;;;;;;;;;;;;;;;2210201;67;1120;-69
2023/03/22 05:07:00;;;;;;;;;;;;;;;;;;2210029;67;1088;-71
2023/03/22 05:09:32;;;;;;;;;;;;;;;;;;2209924;67;1266;-68
2023/03/22 05:12:02;;;;;;;;;;;;;;;;;;2209129;67;1988;-68
2023/03/22 05:14:32;;;;;;;;;;;;;;;;;;2209062;67;1294;-69
2023/03/22 05:17:03;;;;;;;;;;;;;;;;;;2212137;67;1135;-69
2023/03/22 05:19:33;;;;;;;;;;;;;;;;;;2210846;67;1160;-69
2023/03/22 05:22:03;;;;;;;;;;;;;;;;;;2209320;67;1188;-68
2023/03/22 05:24:34;;;;;;;;;;;;;;;;;;2209852;67;1213;-68
2023/03/22 05:27:05;;;;;;;;;;;;;;;;;;2209217;67;1259;-69
2023/03/22 05:29:35;;;;;;;;;;;;;;;;;;2209645;67;1388;-68
2023/03/22 05:32:05;;;;;;;;;;;;;;;;;;2209173;67;1939;-68
2023/03/22 05:34:36;;;;;;;;;;;;;;;;;;2209363;67;1161;-68
2023/03/22 05:37:06;;;;;;;;;;;;;;;;;;2209803;59;1899;-70
2023/03/22 05:39:36;;;;;;;;;;;;;;;;;;2208013;67;1231;-69
2023/03/22 05:42:06;;;;;;;;;;;;;;;;;;2210805;59;1251;-68
2023/03/22 05:44:37;;;;;;;;;;;;;;;;;;2211025;67;1242;-69
2023/03/22 05:47:07;;;;;;;;;;;;;;;;;;2210111;59;1090;-69
2023/03/22 05:49:37;;;;;;;;;;;;;;;;;;2209165;59;1308;-69
2023/03/22 05:52:08;;;;;;;;;;;;;;;;;;2209233;67;1944;-68
2023/03/22 05:54:38;;;;;;;;;;;;;;;;;;2210161;67;1259;-69
2023/03/22 05:57:09;;;;;;;;;;;;;;;;;;2208730;67;1361;-69
2023/03/22 05:59:39;;;;;;;;;;;;;;;;;;2210632;59;1226;-69
2023/03/22 06:02:09;;;;;;;;;;;;;;;;;;2210370;67;1266;-69
2023/03/22 06:04:43;;;;;;;;;;;;;;;;;;2208323;67;1245;-67
2023/03/22 06:07:13;;;;;;;;;;;;;;;;;;2210287;67;1172;-68
2023/03/22 06:09:44;;;;;;;;;;;;;;;;;;2211396;67;1369;-68
2023/03/22 06:12:15;;;;;;;;;;;;;;;;;;2210222;67;1936;-68
2023/03/22 06:14:45;;;;;;;;;;;;;;;;;;2209885;67;1170;-69
2023/03/22 06:17:15;;;;;;;;;;;;;;;;;;2208289;67;1295;-68
2023/03/22 06:19:46;;;;;;;;;;;;;;;;;;2209610;67;1229;-68
2023/03/22 06:22:17;;;;;;;;;;;;;;;;;;2208345;67;1241;-69
2023/03/22 06:24:47;;;;;;;;;;;;;;;;;;2211921;67;1163;-68
2023/03/22 06:27:24;;;;;;;;;;;;;;;;;;2209549;67;1104;-69
2023/03/22 06:29:54;;;;;;;;;;;;;;;;;;2208680;67;1251;-68
2023/03/22 06:32:25;;;;;;;;;;;;;;;;;;2209919;67;1952;-69
2023/03/22 06:34:56;;;;;;;;;;;;;;;;;;2209332;67;1089;-69
2023/03/22 06:37:26;;;;;;;;;;;;;;;;;;2211923;67;1093;-68
2023/03/22 06:39:57;;;;;;;;;;;;;;;;;;2209333;67;1188;-69
2023/03/22 06:42:29;;;;;;;;;;;;;;;;;;2210828;67;1296;-69
2023/03/22 06:45:00;;;;;;;;;;;;;;;;;;2210354;67;1142;-69
2023/03/22 06:47:30;;;;;;;;;;;;;;;;;;2210987;67;1346;-68
2023/03/22 06:50:00;;;;;;;;;;;;;;;;;;2209899;67;1238;-68
2023/03/22 06:52:31;;;;;;;;;;;;;;;;;;2211021;59;1992;-69
2023/03/22 06:55:01;;;;;;;;;;;;;;;;;;2211352;67;1119;-69
2023/03/22 06:57:31;;;;;;;;;;;;;;;;;;2210733;67;1318;-69
2023/03/22 07:00:03;;;;;;;;;;;;;;;;;;2209445;67;1179;-68
2023/03/22 07:02:35;;;;;;;;;;;;;;;;;;2212063;67;1297;-68
2023/03/22 07:05:05;;;;;;;;;;;;;;;;;;2209850;67;1287;-69
2023/03/22 07:07:36;;;;;;;;;;;;;;;;;;2209129;67;1266;-69
2023/03/22 07:10:06;;;;;;;;;;;;;;;;;;2208670;67;1265;-69
2023/03/22 07:12:37;;;;;;;;;;;;;;;;;;2209620;67;1999;-69
2023/03/22 07:15:07;;;;;;;;;;;;;;;;;;2208241;67;1157;-69
2023/03/22 07:17:38;;;;;;;;;;;;;;;;;;2209942;67;1168;-68
2023/03/22 07:20:08;;;;;;;;;;;;;;;;;;2209437;67;1270;-68
2023/03/22 07:22:39;;;;;;;;;;;;;;;;;;2209041;67;1077;-69
2023/03/22 07:25:09;;;;;;;;;;;;;;;;;;2210885;67;1140;-68
2023/03/22 07:27:39;;;;;;;;;;;;;;;;;;2209438;67;1334;-69
2023/03/22 07:30:10;;;;;;;;;;;;;;;;;;2208930;59;1338;-69
2023/03/22 07:32:40;;;;;;;;;;;;;;;;;;2210094;67;1936;-69
2023/03/22 07:35:11;;;;;;;;;;;;;;;;;;2209789;67;1237;-69
2023/03/22 07:37:41;;;;;;;;;;;;;;;;;;2209798;67;1222;-69
2023/03/22 07:40:12;;;;;;;;;;;;;;;;;;2210122;59;1306;-69
2023/03/22 07:42:42;;;;;;;;;;;;;;;;;;2209841;67;1466;-70
2023/03/22 07:45:13;;;;;;;;;;;;;;;;;;2209704;67;1136;-69
2023/03/22 07:47:44;;;;;;;;;;;;;;;;;;2208344;59;1396;-68
2023/03/22 07:50:15;;;;;;;;;;;;;;;;;;2209677;67;1257;-69
2023/03/22 07:52:46;;;;;;;;;;;;;;;;;;2209865;59;1992;-69
2023/03/22 07:55:16;;;;;;;;;;;;;;;;;;2209601;67;1295;-68
2023/03/22 07:57:47;;;;;;;;;;;;;;;;;;2211242;67;1189;-69
2023/03/22 08:00:17;;;;;;;;;;;;;;;;;;2210698;67;1112;-69
2023/03/22 08:02:47;;;;;;;;;;;;;;;;;;2211157;67;1090;-69
2023/03/22 08:05:18;;;;;;;;;;;;;;;;;;2209358;67;1136;-69
2023/03/22 08:07:48;;;;;;;;;;;;;;;;;;2210070;67;1204;-69
2023/03/22 08:10:19;;;;;;;;;;;;;;;;;;2210863;59;1396;-69
2023/03/22 08:12:49;;;;;;;;;;;;;;;;;;2210911;67;2017;-69
2023/03/22 08:15:20;;;;;;;;;;;;;;;;;;2210659;67;1096;-68
2023/03/22 08:17:50;;;;;;;;;;;;;;;;;;2210333;67;1299;-69
2023/03/22 08:20:21;;;;;;;;;;;;;;;;;;2210952;67;1082;-68
2023/03/22 08:22:51;;;;;;;;;;;;;;;;;;2212691;67;1295;-69
2023/03/22 08:25:22;;;;;;;;;;;;;;;;;;2209400;67;1453;-69
2023/03/22 08:27:52;;;;;;;;;;;;;;;;;;2211102;67;1195;-69
2023/03/22 08:30:23;;;;;;;;;;;;;;;;;;2209829;67;1937;-69
2023/03/22 08:32:53;;;;;;;;;;;;;;;;;;2210426;67;1149;-68
2023/03/22 08:35:24;;;;;;;;;;;;;;;;;;2209963;67;1226;-69
2023/03/22 08:37:55;;;;;;;;;;;;;;;;;;2213559;67;1213;-69
2023/03/22 08:40:28;;;;;;;;;;;;;;;;;;2209844;67;1121;-69
2023/03/22 08:42:59;;;;;;;;;;;;;;;;;;2207816;59;1449;-69
2023/03/22 08:45:29;;;;;;;;;;;;;;;;;;2208936;67;1216;-69
2023/03/22 08:47:59;;;;;;;;;;;;;;;;;;2209116;59;1268;-69
2023/03/22 08:50:33;;;;;;;;;;;;;;;;;;2209665;59;2007;-69
2023/03/22 08:53:04;;;;;;;;;;;;;;;;;;2210272;67;1177;-69
2023/03/22 08:55:38;;;;;;;;;;;;;;;;;;2209773;67;1065;-69
2023/03/22 08:58:10;;;;;;;;;;;;;;;;;;2209912;59;1257;-69
2023/03/22 09:00:40;;;;;;;;;;;;;;;;;;2210688;67;1235;-69
2023/03/22 09:03:11;;;;;;;;;;;;;;;;;;2209020;59;1237;-71
2023/03/22 09:05:41;;;;;;;;;;;;;;;;;;2209603;59;1271;-70
2023/03/22 09:08:11;;;;;;;;;;;;;;;;;;2208221;67;1258;-70
2023/03/22 09:10:42;;;;;;;;;;;;;;;;;;2209317;67;1993;-69
2023/03/22 09:13:15;;;;;;;;;;;;;;;;;;2209729;59;1275;-69
2023/03/22 09:15:45;;;;;;;;;;;;;;;;;;2208375;59;1242;-69
2023/03/22 09:18:16;;;;;;;;;;;;;;;;;;2208879;67;1249;-70
2023/03/22 09:20:46;;;;;;;;;;;;;;;;;;2209438;67;1221;-69
2023/03/22 09:23:20;;;;;;;;;;;;;;;;;;2210204;67;1075;-69
2023/03/22 09:25:50;;;;;;;;;;;;;;;;;;2208905;67;1212;-69
2023/03/22 09:28:22;;;;;;;;;;;;;;;;;;2210163;67;1318;-69
2023/03/22 09:30:53;;;;;;;;;;;;;;;;;;2208699;67;1941;-70
2023/03/22 09:33:23;;;;;;;;;;;;;;;;;;2209740;67;1286;-69
2023/03/22 09:35:55;;;;;;;;;;;;;;;;;;2209804;59;1014;-70
2023/03/22 09:38:26;;;;;;;;;;;;;;;;;;2209831;59;1221;-69
2023/03/22 09:41:01;;;;;;;;;;;;;;;;;;2208772;67;1127;-69
2023/03/22 09:43:36;;;;;;;;;;;;;;;;;;2208241;67;973;-69
2023/03/22 09:46:11;;;;;;;;;;;;;;;;;;2207876;59;1266;-69
2023/03/22 09:48:43;;;;;;;;;;;;;;;;;;2208922;59;1212;-69
2023/03/22 09:51:29;;;;;;;;;;;;;;;;;;2211564;59;1991;-70
2023/03/22 09:54:01;;;;;;;;;;;;;;;;;;2211088;59;1228;-70
2023/03/22 09:56:32;;;;;;;;;;;;;;;;;;2208534;67;1040;-69
2023/03/22 09:59:14;;;;;;;;;;;;;;;;;;2208187;67;1281;-70
2023/03/22 10:01:55;;;;;;;;;;;;;;;;;;2208779;67;1336;-70
2023/03/22 10:04:45;;;;;;;;;;;;;;;;;;2209056;67;1170;-70
2023/03/22 10:07:26;;;;;;;;;;;;;;;;;;2210657;67;1220;-70
2023/03/22 10:09:56;;;;;;;;;;;;;;;;;;2208087;59;2006;-69
2023/03/22 10:12:33;;;;;;;;;;;;;;;;;;2209119;59;1975;-70
2023/03/22 10:15:07;;;;;;;;;;;;;;;;;;2209866;67;1248;-70
2023/03/22 10:17:40;;;;;;;;;;;;;;;;;;2209719;67;1088;-69
2023/03/22 10:20:20;;;;;;;;;;;;;;;;;;2209435;67;1267;-69
2023/03/22 10:22:55;;;;;;;;;;;;;;;;;;2207959;67;1209;-69
2023/03/22 10:25:35;;;;;;;;;;;;;;;;;;2208712;67;1199;-70
2023/03/22 10:28:18;;;;;;;;;;;;;;;;;;2207856;67;1249;-70
2023/03/22 10:30:53;;;;;;;;;;;;;;;;;;2208688;59;2356;-69
2023/03/22 10:33:23;;;;;;;;;;;;;;;;;;2208809;59;1070;-69
2023/03/22 10:35:54;;;;;;;;;;;;;;;;;;2209371;67;1141;-69
2023/03/22 10:38:26;;;;;;;;;;;;;;;;;;2209275;67;1234;-70
2023/03/22 10:40:58;;;;;;;;;;;;;;;;;;2209152;67;1168;-69
2023/03/22 10:43:35;;;;;;;;;;;;;;;;;;2208865;59;1102;-69
2023/03/22 10:46:11;;;;;;;;;;;;;;;;;;2209167;67;1197;-69
2023/03/22 10:48:43;;;;;;;;;;;;;;;;;;2209486;59;1230;-69
2023/03/22 10:51:25;;;;;;;;;;;;;;;;;;2209622;67;1909;-69
2023/03/22 10:54:00;;;;;;;;;;;;;;;;;;2208910;59;1852;-69
2023/03/22 10:56:30;;;;;;;;;;;;;;;;;;2209664;67;1176;-69
2023/03/22 10:59:00;;;;;;;;;;;;;;;;;;2209598;67;1212;-69
2023/03/22 11:01:32;;;;;;;;;;;;;;;;;;2207830;59;1140;-69
2023/03/22 11:04:02;;;;;;;;;;;;;;;;;;2209367;67;1119;-69
2023/03/22 11:06:37;;;;;;;;;;;;;;;;;;2208455;59;991;-69
2023/03/22 11:09:12;;;;;;;;;;;;;;;;;;2209682;67;1220;-69
2023/03/22 11:12:08;;;;;;;;;;;;;;;;;;2209112;67;1932;-69
2023/03/22 11:14:42;;;;;;;;;;;;;;;;;;2208128;67;1153;-69
2023/03/22 11:17:15;;;;;;;;;;;;;;;;;;2208360;67;1279;-69
2023/03/22 11:19:54;;;;;;;;;;;;;;;;;;2212492;59;1269;-69
2023/03/22 11:22:24;;;;;;;;;;;;;;;;;;2210072;67;1022;-69
2023/03/22 11:24:55;;;;;;;;;;;;;;;;;;2209256;67;1079;-69
2023/03/22 11:27:27;;;;;;;;;;;;;;;;;;2210051;67;1149;-69
2023/03/22 11:29:59;;;;;;;;;;;;;;;;;;2210586;67;1229;-69
2023/03/22 11:32:34;;;;;;;;;;;;;;;;;;2209932;67;1927;-69
2023/03/22 11:35:11;;;;;;;;;;;;;;;;;;2210861;67;1152;-69
2023/03/22 11:37:46;;;;;;;;;;;;;;;;;;2209233;59;1887;-69
2023/03/22 11:40:18;;;;;;;;;;;;;;;;;;2207271;67;1280;-69
2023/03/22 11:42:51;;;;;;;;;;;;;;;;;;2210159;67;1335;-69
2023/03/22 11:45:25;;;;;;;;;;;;;;;;;;2211042;67;1197;-70
2023/03/22 11:48:05;;;;;;;;;;;;;;;;;;2210704;59;1200;-70
2023/03/22 11:50:36;;;;;;;;;;;;;;;;;;2209271;67;1990;-69
2023/03/22 11:53:11;;;;;;;;;;;;;;;;;;2209935;67;1108;-69
2023/03/22 11:55:42;;;;;;;;;;;;;;;;;;2210121;67;1106;-70
2023/03/22 11:58:41;;;;;;;;;;;;;;;;;;2210338;67;1186;-69
2023/03/22 12:01:14;;;;;;;;;;;;;;;;;;2210127;67;1116;-70
2023/03/22 12:03:48;;;;;;;;;;;;;;;;;;2210355;67;1305;-69
2023/03/22 12:06:23;;;;;;;;;;;;;;;;;;2213223;67;1216;-69
2023/03/22 12:08:57;;;;;;;;;;;;;;;;;;2214474;67;1373;-70
2023/03/22 12:11:42;;;;;;;;;;;;;;;;;;2212392;67;1991;-69
2023/03/22 12:14:39;;;;;;;;;;;;;;;;;;2208974;67;1137;-69
2023/03/22 12:17:19;;;;;;;;;;;;;;;;;;2209157;67;1247;-69
2023/03/22 12:19:58;;;;;;;;;;;;;;;;;;2210002;59;1775;-69
2023/03/22 12:22:30;;;;;;;;;;;;;;;;;;2209362;59;2020;-69
2023/03/22 12:25:02;;;;;;;;;;;;;;;;;;2209575;67;1121;-69
2023/03/22 12:27:35;;;;;;;;;;;;;;;;;;2210516;67;1265;-69
2023/03/22 12:30:26;;;;;;;;;;;;;;;;;;2209511;59;1418;-69
2023/03/22 12:33:02;;;;;;;;;;;;;;;;;;2207934;59;1937;-69
2023/03/22 12:35:35;;;;;;;;;;;;;;;;;;2209132;59;1702;-70
2023/03/22 12:38:11;;;;;;;;;;;;;;;;;;2209458;59;1346;-69
2023/03/22 12:40:41;;;;;;;;;;;;;;;;;;2208952;59;1103;-69
2023/03/22 12:43:36;;;;;;;;;;;;;;;;;;2209315;67;1218;-69
2023/03/22 12:46:13;;;;;;;;;;;;;;;;;;2208888;67;1155;-69
2023/03/22 12:49:02;;;;;;;;;;;;;;;;;;2208831;67;1271;-69
2023/03/22 12:51:33;;;;;;;;;;;;;;;;;;2211661;67;1929;-69
2023/03/22 12:54:04;;;;;;;;;;;;;;;;;;2211086;67;1247;-69
2023/03/22 12:56:37;;;;;;;;;;;;;;;;;;2208618;67;1148;-69
2023/03/22 12:59:14;;;;;;;;;;;;;;;;;;2208360;67;1210;-69
2023/03/22 13:01:58;;;;;;;;;;;;;;;;;;2210162;67;1239;-69
2023/03/22 13:04:48;;;;;;;;;;;;;;;;;;2210016;67;1280;-69
2023/03/22 13:07:30;;;;;;;;;;;;;;;;;;2208944;67;1171;-69
2023/03/22 13:10:20;;;;;;;;;;;;;;;;;;2208779;67;1226;-69
2023/03/22 13:13:20;;;;;;;;;;;;;;;;;;2207964;67;1917;-69
2023/03/22 13:16:09;;;;;;;;;;;;;;;;;;2206082;67;1374;-69
2023/03/22 13:18:42;;;;;;;;;;;;;;;;;;2209420;67;1267;-69
2023/03/22 13:21:15;;;;;;;;;;;;;;;;;;2209414;67;1221;-69
2023/03/22 13:23:59;;;;;;;;;;;;;;;;;;2210544;67;1324;-69
2023/03/22 13:26:29;;;;;;;;;;;;;;;;;;2208157;67;1361;-68
2023/03/22 13:29:07;;;;;;;;;;;;;;;;;;2208219;67;1279;-69
2023/03/22 13:31:42;;;;;;;;;;;;;;;;;;2208787;67;1939;-69
2023/03/22 13:34:20;;;;;;;;;;;;;;;;;;2210911;67;1997;-70
2023/03/22 13:36:53;;;;;;;;;;;;;;;;;;2208765;59;1623;-69
2023/03/22 13:39:24;;;;;;;;;;;;;;;;;;2211024;67;1500;-69
2023/03/22 13:42:06;;;;;;;;;;;;;;;;;;2209134;67;1012;-69
2023/03/22 13:44:37;;;;;;;;;;;;;;;;;;2207230;59;1708;-69
2023/03/22 13:47:27;;;;;;;;;;;;;;;;;;2208030;59;1284;-69
2023/03/22 13:50:00;;;;;;;;;;;;;;;;;;2206884;67;1250;-69
2023/03/22 13:52:36;;;;;;;;;;;;;;;;;;2209480;59;1951;-69
2023/03/22 13:55:15;;;;;;;;;;;;;;;;;;2209264;67;1087;-69
2023/03/22 13:57:49;;;;;;;;;;;;;;;;;;2209950;67;1239;-69
2023/03/22 14:00:33;;;;;;;;;;;;;;;;;;2209031;67;1036;-69
2023/03/22 14:03:24;;;;;;;;;;;;;;;;;;2208035;67;1537;-69
2023/03/22 14:06:14;;;;;;;;;;;;;;;;;;2208136;59;1235;-69
2023/03/22 14:08:46;;;;;;;;;;;;;;;;;;2211031;67;1400;-70
2023/03/22 14:11:28;;;;;;;;;;;;;;;;;;2208835;67;1931;-69
2023/03/22 14:14:02;;;;;;;;;;;;;;;;;;2208958;67;1089;-69
2023/03/22 14:16:41;;;;;;;;;;;;;;;;;;2208168;59;1336;-69
2023/03/22 14:19:22;;;;;;;;;;;;;;;;;;2208722;67;1190;-69
2023/03/22 14:21:54;;;;;;;;;;;;;;;;;;2207768;67;1126;-69
2023/03/22 14:24:27;;;;;;;;;;;;;;;;;;2209311;67;1108;-69
2023/03/22 14:26:58;;;;;;;;;;;;;;;;;;2210658;67;1057;-69
2023/03/22 14:29:42;;;;;;;;;;;;;;;;;;2209227;67;1210;-69
2023/03/22 14:32:23;;;;;;;;;;;;;;;;;;2207774;67;1933;-70
2023/03/22 14:34:58;;;;;;;;;;;;;;;;;;2208653;67;1121;-70
2023/03/22 14:37:28;;;;;;;;;;;;;;;;;;2209354;67;1312;-69
2023/03/22 14:39:59;;;;;;;;;;;;;;;;;;2208484;67;1207;-69
2023/03/22 14:42:31;;;;;;;;;;;;;;;;;;2217949;59;1368;-69
2023/03/22 14:45:15;;;;;;;;;;;;;;;;;;2220591;66;1317;-69
2023/03/22 14:47:45;;;;;;;;;;;;;;;;;;2209484;59;1692;-70
2023/03/22 14:50:18;;;;;;;;;;;;;;;;;;2207625;67;1312;-69
2023/03/22 14:52:50;;;;;;;;;;;;;;;;;;2207866;67;1924;-69
2023/03/22 14:55:23;;;;;;;;;;;;;;;;;;2208347;67;1029;-69
2023/03/22 14:57:58;;;;;;;;;;;;;;;;;;2207515;67;1225;-69
2023/03/22 15:00:28;;;;;;;;;;;;;;;;;;2208751;67;1117;-69
2023/03/22 15:03:01;;;;;;;;;;;;;;;;;;2208773;67;1046;-69
2023/03/22 15:05:38;;;;;;;;;;;;;;;;;;2208912;67;1114;-69
2023/03/22 15:08:20;;;;;;;;;;;;;;;;;;2209244;67;1271;-69
2023/03/22 15:10:54;;;;;;;;;;;;;;;;;;2208258;67;1982;-69
2023/03/22 15:13:25;;;;;;;;;;;;;;;;;;2208382;67;1031;-69
2023/03/22 15:15:56;;;;;;;;;;;;;;;;;;2208358;59;2440;-70
2023/03/22 15:18:29;;;;;;;;;;;;;;;;;;2208626;67;1173;-69
2023/03/22 15:21:03;;;;;;;;;;;;;;;;;;2208470;67;1140;-69
2023/03/22 15:23:35;;;;;;;;;;;;;;;;;;2208890;59;1383;-69
2023/03/22 15:26:14;;;;;;;;;;;;;;;;;;2208541;67;1280;-70
2023/03/22 15:28:49;;;;;;;;;;;;;;;;;;2208210;59;1280;-69
2023/03/22 15:31:26;;;;;;;;;;;;;;;;;;2208946;67;1977;-69
2023/03/22 15:33:58;;;;;;;;;;;;;;;;;;2208337;67;1121;-69
2023/03/22 15:36:31;;;;;;;;;;;;;;;;;;2208980;67;1107;-69
2023/03/22 15:39:16;;;;;;;;;;;;;;;;;;2208638;67;1186;-69
2023/03/22 15:41:54;;;;;;;;;;;;;;;;;;2208491;67;1230;-69
2023/03/22 15:44:28;;;;;;;;;;;;;;;;;;2211463;67;1123;-69
2023/03/22 15:47:00;;;;;;;;;;;;;;;;;;2208230;67;1036;-69
2023/03/22 15:49:40;;;;;;;;;;;;;;;;;;2208330;59;1263;-69
2023/03/22 15:52:18;;;;;;;;;;;;;;;;;;2208468;67;1905;-69
2023/03/22 15:54:54;;;;;;;;;;;;;;;;;;2208177;67;1273;-69
2023/03/22 15:57:36;;;;;;;;;;;;;;;;;;2209220;67;1188;-68
2023/03/22 16:00:16;;;;;;;;;;;;;;;;;;2208382;67;1208;-69
2023/03/22 16:02:59;;;;;;;;;;;;;;;;;;2208013;67;1095;-69
2023/03/22 16:05:30;;;;;;;;;;;;;;;;;;2208374;67;1136;-69
2023/03/22 16:08:01;;;;;;;;;;;;;;;;;;2208154;67;1129;-69
2023/03/22 16:10:33;;;;;;;;;;;;;;;;;;2207290;67;1034;-69
2023/03/22 16:13:20;;;;;;;;;;;;;;;;;;2208653;67;1996;-69
2023/03/22 16:15:50;;;;;;;;;;;;;;;;;;2208563;67;1229;-69
2023/03/22 16:18:21;;;;;;;;;;;;;;;;;;2209840;67;1158;-69
2023/03/22 16:20:52;;;;;;;;;;;;;;;;;;2209011;59;1076;-69
2023/03/22 16:23:23;;;;;;;;;;;;;;;;;;2209294;67;1040;-69
2023/03/22 16:25:53;;;;;;;;;;;;;;;;;;2209261;67;1228;-69
2023/03/22 16:28:24;;;;;;;;;;;;;;;;;;2209242;59;1191;-69
2023/03/22 16:30:54;;;;;;;;;;;;;;;;;;2208486;67;1988;-69
2023/03/22 16:33:25;;;;;;;;;;;;;;;;;;2208212;67;1172;-69
2023/03/22 16:35:55;;;;;;;;;;;;;;;;;;2207931;67;1090;-69
2023/03/22 16:38:26;;;;;;;;;;;;;;;;;;2211778;67;1222;-69
2023/03/22 16:40:57;;;;;;;;;;;;;;;;;;2209060;67;1121;-69
2023/03/22 16:43:27;;;;;;;;;;;;;;;;;;2212089;67;1100;-69
2023/03/22 16:45:59;;;;;;;;;;;;;;;;;;2208978;67;1089;-69
2023/03/22 16:48:30;;;;;;;;;;;;;;;;;;2209333;59;1198;-68
2023/03/22 16:51:00;;;;;;;;;;;;;;;;;;2210693;67;1997;-69
2023/03/22 16:53:30;;;;;;;;;;;;;;;;;;2208273;67;1056;-69
2023/03/22 16:56:00;;;;;;;;;;;;;;;;;;2208387;67;1001;-69
2023/03/22 16:58:31;;;;;;;;;;;;;;;;;;2212936;67;1151;-69
2023/03/22 17:01:01;;;;;;;;;;;;;;;;;;2220919;59;1162;-69
2023/03/22 17:03:31;;;;;;;;;;;;;;;;;;2221667;67;1017;-69
2023/03/22 17:06:02;;;;;;;;;;;;;;;;;;2221192;67;1076;-69
2023/03/22 17:08:32;;;;;;;;;;;;;;;;;;2220428;67;1259;-69
2023/03/22 17:11:02;;;;;;;;;;;;;;;;;;2219277;67;1940;-69
2023/03/22 17:13:33;;;;;;;;;;;;;;;;;;2219497;67;1113;-69
2023/03/22 17:16:03;;;;;;;;;;;;;;;;;;2209482;67;1121;-68
2023/03/22 17:18:34;;;;;;;;;;;;;;;;;;2209237;67;1256;-68
2023/03/22 17:21:05;;;;;;;;;;;;;;;;;;2208753;67;1078;-68
2023/03/22 17:23:35;;;;;;;;;;;;;;;;;;2207661;67;1144;-69
2023/03/22 17:26:06;;;;;;;;;;;;;;;;;;2209246;67;1040;-69
2023/03/22 17:28:36;;;;;;;;;;;;;;;;;;2208731;67;1132;-69
2023/03/22 17:31:10;;;;;;;;;;;;;;;;;;2208960;59;1929;-70
2023/03/22 17:33:40;;;;;;;;;;;;;;;;;;2211857;60;1176;-68
2023/03/22 17:36:12;;;;;;;;;;;;;;;;;;2209689;67;1046;-69
2023/03/22 17:38:42;;;;;;;;;;;;;;;;;;2210760;59;1387;-69
2023/03/22 17:41:13;;;;;;;;;;;;;;;;;;2209099;67;1217;-69
2023/03/22 17:43:43;;;;;;;;;;;;;;;;;;2209034;59;1167;-69
2023/03/22 17:46:14;;;;;;;;;;;;;;;;;;2211745;59;1434;-69
2023/03/22 17:48:44;;;;;;;;;;;;;;;;;;2209043;59;1243;-68
2023/03/22 17:51:15;;;;;;;;;;;;;;;;;;2209098;67;1930;-69